Time;durP1;ratioP1;P1;durP2;ratioP2;P2;SDS_P1;SDS_P2;PMS_P1;PMS_P2;Temp;Humidity;BMP_temperature;BMP_pressure;BME280_temperature;BME280_humidity;BME280_pressure;Samples;Min_cycle;Max_cycle;Signal;HPM_P1;HPM_P2
2021/01/03 00:01:10;;;;;;;85.88;34.95;;;4.40;99.90;;;;;;5090056;28;20115;-69
2021/01/03 00:03:36;;;;;;;82.35;34.08;;;4.50;99.90;;;;;;5089870;28;20024;-69
2021/01/03 00:06:02;;;;;;;93.18;36.33;;;4.50;99.90;;;;;;5090696;28;20064;-69
2021/01/03 00:08:28;;;;;;;94.78;36.25;;;4.40;99.90;;;;;;5091682;28;20480;-69
2021/01/03 00:10:53;;;;;;;86.28;34.20;;;4.40;99.90;;;;;;5094033;28;20024;-69
2021/01/03 00:13:19;;;;;;;89.93;36.75;;;4.40;99.90;;;;;;5093849;28;20020;-69
2021/01/03 00:15:44;;;;;;;86.72;35.38;;;4.40;99.90;;;;;;5093410;28;20089;-69
2021/01/03 00:18:10;;;;;;;91.65;33.35;;;4.50;99.90;;;;;;5093575;28;20067;-69
2021/01/03 00:20:37;;;;;;;94.72;34.80;;;4.40;99.90;;;;;;5081832;28;20017;-69
2021/01/03 00:23:03;;;;;;;80.68;32.15;;;4.50;99.90;;;;;;5086648;28;20040;-69
2021/01/03 00:25:30;;;;;;;70.88;29.45;;;4.40;99.90;;;;;;5084488;28;20016;-69
2021/01/03 00:27:55;;;;;;;85.35;34.33;;;4.40;99.90;;;;;;5089645;28;20438;-69
2021/01/03 00:30:23;;;;;;;82.05;31.77;;;4.40;99.90;;;;;;5093018;28;20099;-68
2021/01/03 00:32:50;;;;;;;83.72;31.85;;;4.40;99.90;;;;;;5093310;28;20081;-69
2021/01/03 00:35:21;;;;;;;75.95;31.13;;;4.40;99.90;;;;;;5093842;28;20032;-69
2021/01/03 00:37:47;;;;;;;;;;;4.50;99.90;;;;;;5093789;28;20433;-69
2021/01/03 00:40:16;;;;;;;66.63;25.40;;;4.50;99.90;;;;;;5092977;28;20352;-69
2021/01/03 00:42:42;;;;;;;75.95;25.33;;;4.50;99.90;;;;;;5093048;28;20110;-70
2021/01/03 00:45:10;;;;;;;56.78;23.85;;;4.50;99.90;;;;;;5093309;28;20395;-69
2021/01/03 00:47:36;;;;;;;60.15;23.90;;;4.50;99.90;;;;;;5093160;28;20066;-69
2021/01/03 00:50:05;;;;;;;48.25;21.45;;;4.50;99.90;;;;;;5092736;28;20058;-69
2021/01/03 00:52:31;;;;;;;61.83;23.55;;;4.50;99.90;;;;;;5092847;28;20019;-69
2021/01/03 00:54:56;;;;;;;54.08;20.05;;;4.40;99.90;;;;;;5092946;28;20032;-69
2021/01/03 00:57:22;;;;;;;56.38;22.50;;;4.40;99.90;;;;;;5092743;28;20016;-69
2021/01/03 00:59:47;;;;;;;52.60;20.42;;;4.50;99.90;;;;;;5092904;28;20506;-69
2021/01/03 01:02:13;;;;;;;41.88;19.08;;;4.40;99.90;;;;;;5093077;28;20016;-70
2021/01/03 01:04:38;;;;;;;47.00;19.55;;;4.50;99.90;;;;;;5093130;28;20822;-69
2021/01/03 01:07:04;;;;;;;44.88;18.80;;;4.40;99.90;;;;;;5092870;28;20488;-69
2021/01/03 01:09:29;;;;;;;46.17;19.25;;;4.40;99.90;;;;;;5092947;28;20494;-69
2021/01/03 01:11:55;;;;;;;44.25;20.15;;;4.40;99.90;;;;;;5093152;28;20099;-69
2021/01/03 01:14:20;;;;;;;45.22;19.17;;;4.40;99.90;;;;;;5092861;28;20070;-68
2021/01/03 01:16:46;;;;;;;42.08;19.15;;;4.40;99.90;;;;;;5092836;28;20035;-69
2021/01/03 01:19:12;;;;;;;43.50;19.88;;;4.40;99.90;;;;;;5091940;28;20036;-68
2021/01/03 01:21:37;;;;;;;35.25;18.08;;;4.40;99.90;;;;;;5092788;28;20032;-69
2021/01/03 01:24:03;;;;;;;45.33;19.83;;;4.40;99.90;;;;;;5093160;28;20405;-70
2021/01/03 01:26:29;;;;;;;38.75;19.50;;;4.40;99.90;;;;;;5092098;28;20053;-70
2021/01/03 01:28:54;;;;;;;40.65;21.25;;;4.40;99.90;;;;;;5092556;28;20024;-68
2021/01/03 01:31:20;;;;;;;43.78;19.85;;;4.40;99.90;;;;;;5092584;28;20028;-69
2021/01/03 01:33:45;;;;;;;44.38;18.88;;;4.40;99.90;;;;;;5091967;28;20023;-69
2021/01/03 01:36:11;;;;;;;47.20;21.20;;;4.40;99.90;;;;;;5092382;28;20057;-69
2021/01/03 01:38:37;;;;;;;45.17;20.02;;;4.40;99.90;;;;;;5092163;28;20491;-69
2021/01/03 01:41:03;;;;;;;40.38;18.42;;;4.40;99.90;;;;;;5091844;28;20032;-69
2021/01/03 01:43:29;;;;;;;46.63;20.52;;;4.40;99.90;;;;;;5091658;28;20044;-69
2021/01/03 01:45:55;;;;;;;43.70;19.00;;;4.40;99.90;;;;;;5092077;28;20035;-69
2021/01/03 01:48:29;;;;;;;47.50;19.20;;;4.40;99.90;;;;;;5091864;28;20020;-68
2021/01/03 01:51:03;;;;;;;46.17;19.05;;;4.40;99.90;;;;;;5092201;28;20113;-69
2021/01/03 01:53:52;;;;;;;51.45;19.92;;;4.40;99.90;;;;;;5083921;28;20024;-69
2021/01/03 01:56:42;;;;;;;50.42;21.98;;;4.40;99.90;;;;;;5071075;28;20052;-68
2021/01/03 01:59:14;;;;;;;57.22;21.33;;;4.40;99.90;;;;;;5074985;28;20040;-69
2021/01/03 02:01:51;;;;;;;51.72;20.90;;;4.40;99.90;;;;;;5091118;28;20391;-70
2021/01/03 02:04:37;;;;;;;56.25;21.55;;;4.30;99.90;;;;;;5079496;28;20328;-68
2021/01/03 02:07:08;;;;;;;61.10;22.95;;;4.30;99.90;;;;;;5091203;28;20031;-68
2021/01/03 02:10:07;;;;;;;58.70;22.55;;;4.30;99.90;;;;;;5091672;28;20022;-69
2021/01/03 02:12:40;;;;;;;64.70;22.75;;;4.30;99.90;;;;;;5077120;28;20134;-69
2021/01/03 02:15:22;;;;;;;55.28;20.48;;;4.30;99.90;;;;;;5091716;28;20040;-69
2021/01/03 02:17:48;;;;;;;61.97;22.17;;;4.30;99.90;;;;;;5091336;28;20040;-70
2021/01/03 02:20:15;;;;;;;57.85;21.50;;;4.30;99.90;;;;;;5091610;28;20142;-69
2021/01/03 02:22:52;;;;;;;55.47;21.42;;;4.30;99.90;;;;;;5091198;28;20036;-69
2021/01/03 02:25:20;;;;;;;48.75;19.88;;;4.30;99.90;;;;;;5091167;28;20130;-69
2021/01/03 02:28:13;;;;;;;52.53;20.10;;;4.30;99.90;;;;;;5086649;28;20541;-69
2021/01/03 02:30:41;;;;;;;51.65;20.52;;;4.30;99.90;;;;;;5085271;28;20024;-69
2021/01/03 02:33:37;;;;;;;51.35;20.13;;;4.30;99.90;;;;;;5091130;28;20028;-70
2021/01/03 02:36:10;;;;;;;50.55;19.45;;;4.30;99.90;;;;;;5090795;28;20040;-69
2021/01/03 02:38:39;;;;;;;55.83;21.33;;;4.30;99.90;;;;;;5091073;28;20110;-69
2021/01/03 02:41:05;;;;;;;52.75;21.35;;;4.30;99.90;;;;;;5091149;28;20016;-69
2021/01/03 02:43:31;;;;;;;49.85;21.45;;;4.20;99.90;;;;;;5090509;28;20464;-69
2021/01/03 02:45:56;;;;;;;57.45;20.88;;;4.20;99.90;;;;;;5090880;28;20446;-69
2021/01/03 02:48:24;;;;;;;55.80;21.45;;;4.30;99.90;;;;;;5090778;28;20054;-69
2021/01/03 02:50:50;;;;;;;60.55;22.02;;;4.20;99.90;;;;;;5090843;28;20028;-69
2021/01/03 02:53:18;;;;;;;56.63;21.63;;;4.20;99.90;;;;;;5090467;28;20042;-69
2021/01/03 02:55:43;;;;;;;53.15;23.15;;;4.20;99.90;;;;;;5090868;28;20036;-68
2021/01/03 02:58:09;;;;;;;47.67;20.00;;;4.20;99.90;;;;;;5090461;28;20854;-68
2021/01/03 03:00:37;;;;;;;54.15;20.02;;;4.20;99.90;;;;;;5090510;28;20016;-67
2021/01/03 03:03:07;;;;;;;41.85;19.25;;;4.20;99.90;;;;;;5076919;28;20016;-68
2021/01/03 03:05:33;;;;;;;53.10;20.75;;;4.20;99.90;;;;;;5077359;28;20032;-69
2021/01/03 03:07:59;;;;;;;50.67;18.38;;;4.20;99.90;;;;;;5090821;28;20119;-68
2021/01/03 03:10:24;;;;;;;43.83;18.67;;;4.20;99.90;;;;;;5089969;28;20318;-68
2021/01/03 03:12:52;;;;;;;47.78;20.20;;;4.20;99.90;;;;;;5090872;28;20058;-68
2021/01/03 03:15:20;;;;;;;46.22;19.75;;;4.10;99.90;;;;;;5089888;28;20046;-69
2021/01/03 03:17:46;;;;;;;48.60;19.80;;;4.10;99.90;;;;;;5090514;28;20115;-70
2021/01/03 03:20:13;;;;;;;42.50;18.38;;;4.10;99.90;;;;;;5090470;28;20467;-69
2021/01/03 03:22:39;;;;;;;43.38;18.95;;;4.10;99.90;;;;;;5090687;28;20127;-69
2021/01/03 03:25:06;;;;;;;46.05;19.17;;;4.10;99.90;;;;;;5090587;28;20039;-69
2021/01/03 03:27:32;;;;;;;49.88;18.58;;;4.10;99.90;;;;;;5090367;28;20314;-70
2021/01/03 03:29:58;;;;;;;48.10;19.48;;;4.10;99.90;;;;;;5090858;28;20464;-69
2021/01/03 03:32:23;;;;;;;54.60;22.77;;;4.10;99.90;;;;;;5089814;28;20027;-69
2021/01/03 03:34:49;;;;;;;44.80;20.10;;;4.10;99.90;;;;;;5090326;28;20137;-69
2021/01/03 03:37:14;;;;;;;47.13;19.60;;;4.10;99.90;;;;;;5090121;28;20023;-69
2021/01/03 03:39:40;;;;;;;49.33;18.67;;;4.10;99.90;;;;;;5090116;28;20030;-70
2021/01/03 03:42:05;;;;;;;49.33;19.20;;;4.00;99.90;;;;;;5090585;28;20117;-69
2021/01/03 03:44:31;;;;;;;59.28;21.80;;;4.10;99.90;;;;;;5093803;28;20371;-69
2021/01/03 03:47:02;;;;;;;53.58;20.33;;;4.10;99.90;;;;;;5094163;28;20043;-69
2021/01/03 03:49:29;;;;;;;55.65;20.10;;;4.10;99.90;;;;;;5094217;28;20024;-69
2021/01/03 03:51:57;;;;;;;54.90;20.63;;;4.10;99.90;;;;;;5094859;28;20028;-69
2021/01/03 03:54:23;;;;;;;53.53;20.17;;;4.10;99.90;;;;;;5093586;28;20020;-68
2021/01/03 03:57:00;;;;;;;59.25;21.70;;;4.10;99.90;;;;;;5094178;28;20077;-69
2021/01/03 03:59:26;;;;;;;55.72;22.20;;;4.10;99.90;;;;;;5093432;28;20126;-69
2021/01/03 04:01:52;;;;;;;63.08;21.55;;;4.20;99.90;;;;;;5089949;28;20028;-68
2021/01/03 04:04:19;;;;;;;61.60;22.60;;;4.10;99.90;;;;;;5084136;28;20089;-70
2021/01/03 04:06:45;;;;;;;53.40;20.92;;;4.10;99.90;;;;;;5093571;28;20035;-70
2021/01/03 04:09:11;;;;;;;54.72;21.00;;;4.10;99.90;;;;;;5093884;28;20020;-69
2021/01/03 04:11:46;;;;;;;57.38;21.88;;;4.10;99.90;;;;;;5093452;28;20078;-70
2021/01/03 04:14:14;;;;;;;61.08;23.73;;;4.10;99.90;;;;;;5093439;28;20349;-69
2021/01/03 04:16:56;;;;;;;58.45;22.45;;;4.10;99.90;;;;;;5093636;28;20379;-69
2021/01/03 04:19:23;;;;;;;60.55;22.65;;;4.10;99.90;;;;;;5093490;28;20403;-69
2021/01/03 04:22:14;;;;;;;59.75;21.55;;;4.10;99.90;;;;;;5093111;28;20032;-69
2021/01/03 04:24:40;;;;;;;54.95;22.33;;;4.10;99.90;;;;;;5090471;28;20028;-69
2021/01/03 04:27:08;;;;;;;51.70;21.50;;;4.20;99.90;;;;;;5093680;28;20070;-70
2021/01/03 04:29:35;;;;;;;55.60;21.40;;;4.10;99.90;;;;;;5092962;28;20024;-68
2021/01/03 04:32:04;;;;;;;58.45;20.67;;;4.10;99.90;;;;;;5093366;28;20028;-69
2021/01/03 04:34:30;;;;;;;62.72;21.95;;;4.10;99.90;;;;;;5092785;28;20479;-69
2021/01/03 04:36:57;;;;;;;51.88;20.40;;;4.20;99.90;;;;;;5093663;28;20031;-69
2021/01/03 04:39:24;;;;;;;54.65;20.48;;;4.20;99.90;;;;;;5092673;28;20495;-68
2021/01/03 04:42:02;;;;;;;66.60;21.67;;;4.20;99.90;;;;;;5093228;28;20680;-69
2021/01/03 04:44:53;;;;;;;61.67;23.17;;;4.10;99.90;;;;;;5092730;28;20060;-69
2021/01/03 04:47:32;;;;;;;60.65;21.77;;;4.20;99.90;;;;;;5093226;28;20365;-68
2021/01/03 04:50:21;;;;;;;68.97;25.75;;;4.20;99.90;;;;;;5093039;28;20119;-68
2021/01/03 04:52:55;;;;;;;61.38;21.23;;;4.20;99.90;;;;;;5092844;28;20097;-69
2021/01/03 04:55:23;;;;;;;61.20;23.27;;;4.10;99.90;;;;;;5092270;28;20131;-68
2021/01/03 04:58:13;;;;;;;54.75;21.75;;;4.10;99.90;;;;;;5092719;28;20092;-68
2021/01/03 05:00:50;;;;;;;57.60;20.05;;;4.20;99.90;;;;;;5093196;28;20016;-70
2021/01/03 05:03:53;;;;;;;52.65;19.95;;;4.10;99.90;;;;;;5078346;28;20132;-69
2021/01/03 05:06:24;;;;;;;53.88;21.17;;;4.20;99.90;;;;;;5092540;28;20067;-68
2021/01/03 05:08:56;;;;;;;61.50;21.90;;;4.20;99.90;;;;;;5092889;28;20074;-68
2021/01/03 05:11:37;;;;;;;56.85;21.83;;;4.20;99.90;;;;;;5092307;28;20102;-69
2021/01/03 05:14:19;;;;;;;64.00;21.52;;;4.20;99.90;;;;;;5092447;28;20034;-69
2021/01/03 05:16:52;;;;;;;52.97;20.27;;;4.20;99.90;;;;;;5092253;28;20028;-69
2021/01/03 05:19:18;;;;;;;62.85;22.75;;;4.20;99.90;;;;;;5092196;28;20474;-69
2021/01/03 05:21:50;;;;;;;62.83;22.00;;;4.20;99.90;;;;;;5092714;28;20115;-68
2021/01/03 05:24:16;;;;;;;70.35;21.42;;;4.20;99.90;;;;;;5078129;28;20518;-68
2021/01/03 05:26:42;;;;;;;65.15;22.65;;;4.20;99.90;;;;;;5092538;28;20094;-69
2021/01/03 05:29:11;;;;;;;72.72;23.38;;;4.20;99.90;;;;;;5092464;28;20036;-69
2021/01/03 05:31:37;;;;;;;56.60;20.30;;;4.20;99.90;;;;;;5091790;28;20050;-68
2021/01/03 05:34:08;;;;;;;58.47;21.13;;;4.20;99.90;;;;;;5091972;28;20016;-68
2021/01/03 05:36:50;;;;;;;62.78;22.45;;;4.20;99.90;;;;;;5092183;28;20051;-69
2021/01/03 05:39:21;;;;;;;64.45;21.35;;;4.20;99.90;;;;;;5091456;28;20111;-68
2021/01/03 05:41:47;;;;;;;69.63;22.30;;;4.20;99.90;;;;;;5092330;28;20364;-69
2021/01/03 05:44:22;;;;;;;67.43;22.00;;;4.20;99.90;;;;;;5091721;28;20031;-69
2021/01/03 05:46:51;;;;;;;63.10;22.90;;;4.20;99.90;;;;;;5091896;28;20472;-69
2021/01/03 05:49:26;;;;;;;59.92;21.83;;;4.20;99.90;;;;;;5091626;28;20028;-69
2021/01/03 05:52:20;;;;;;;65.47;22.88;;;4.10;99.90;;;;;;5092145;28;20024;-69
2021/01/03 05:54:46;;;;;;;59.00;21.63;;;4.20;99.90;;;;;;5091930;28;20074;-69
2021/01/03 05:57:26;;;;;;;57.47;21.17;;;4.20;99.90;;;;;;5092082;28;20020;-69
2021/01/03 05:59:52;;;;;;;56.83;20.20;;;4.20;99.90;;;;;;5091660;28;20111;-71
2021/01/03 06:02:22;;;;;;;59.97;22.02;;;4.20;99.90;;;;;;5084319;28;20145;-68
2021/01/03 06:05:00;;;;;;;57.75;19.80;;;4.20;99.90;;;;;;5086332;28;20028;-68
2021/01/03 06:07:29;;;;;;;64.90;23.10;;;4.20;99.90;;;;;;5090988;28;20051;-68
2021/01/03 06:09:54;;;;;;;54.65;21.00;;;4.20;99.90;;;;;;5091534;28;20028;-68
2021/01/03 06:12:26;;;;;;;61.67;22.83;;;4.20;99.90;;;;;;5091646;28;20035;-68
2021/01/03 06:14:55;;;;;;;57.80;20.10;;;4.20;99.90;;;;;;5091677;28;20068;-68
2021/01/03 06:17:45;;;;;;;54.78;21.30;;;4.20;99.90;;;;;;5091383;28;20325;-68
2021/01/03 06:20:15;;;;;;;51.75;20.17;;;4.20;99.90;;;;;;5091467;28;20118;-69
2021/01/03 06:23:07;;;;;;;59.78;19.60;;;4.20;99.90;;;;;;5091948;28;20031;-70
2021/01/03 06:25:55;;;;;;;67.85;21.65;;;4.20;99.90;;;;;;5091257;28;20027;-70
2021/01/03 06:28:29;;;;;;;54.42;20.00;;;4.10;99.90;;;;;;5090809;28;20133;-68
2021/01/03 06:31:13;;;;;;;60.58;20.48;;;4.10;99.90;;;;;;5091230;28;20399;-69
2021/01/03 06:33:59;;;;;;;55.97;20.42;;;4.10;99.90;;;;;;5091927;28;20107;-69
2021/01/03 06:36:33;;;;;;;62.58;21.92;;;4.10;99.90;;;;;;5079086;28;20428;-69
2021/01/03 06:39:17;;;;;;;60.40;21.38;;;4.10;99.90;;;;;;5092217;28;20364;-69
2021/01/03 06:41:55;;;;;;;60.55;21.80;;;4.10;99.90;;;;;;5091250;28;20032;-69
2021/01/03 06:45:03;;;;;;;56.25;21.30;;;4.10;99.90;;;;;;5091258;28;20349;-69
2021/01/03 06:47:54;;;;;;;62.22;22.75;;;4.00;99.90;;;;;;5090416;28;20105;-69
2021/01/03 06:50:40;;;;;;;65.32;21.42;;;4.00;99.90;;;;;;5090360;28;20111;-69
2021/01/03 06:53:46;;;;;;;56.42;21.60;;;4.00;99.90;;;;;;5091107;28;20448;-69
2021/01/03 06:56:45;;;;;;;57.30;22.88;;;4.00;99.90;;;;;;5090161;28;20046;-69
2021/01/03 06:59:48;;;;;;;54.63;21.17;;;4.00;99.90;;;;;;5089758;28;20024;-69
2021/01/03 07:02:16;;;;;;;58.22;21.10;;;3.90;99.90;;;;;;5078671;28;20040;-69
2021/01/03 07:04:42;;;;;;;64.13;23.20;;;3.90;99.90;;;;;;5084434;28;20066;-69
2021/01/03 07:07:28;;;;;;;61.10;20.67;;;3.80;99.90;;;;;;5090575;28;20047;-69
2021/01/03 07:10:00;;;;;;;58.35;21.55;;;3.90;99.90;;;;;;5090115;28;20035;-69
2021/01/03 07:12:55;;;;;;;58.00;21.25;;;3.80;99.90;;;;;;5074776;28;20012;-69
2021/01/03 07:15:26;;;;;;;63.75;22.23;;;3.80;99.90;;;;;;5060383;28;20045;-69
2021/01/03 07:17:55;;;;;;;54.28;21.73;;;3.80;99.90;;;;;;5074143;28;20020;-69
2021/01/03 07:20:29;;;;;;;56.72;22.27;;;3.80;99.90;;;;;;5076067;28;20085;-69
2021/01/03 07:23:14;;;;;;;56.95;22.10;;;3.80;99.90;;;;;;5077387;28;20024;-70
2021/01/03 07:25:51;;;;;;;56.88;21.05;;;3.80;99.90;;;;;;5075777;28;20043;-69
2021/01/03 07:28:23;;;;;;;57.67;21.67;;;3.80;99.90;;;;;;5076414;28;20522;-70
2021/01/03 07:30:53;;;;;;;55.95;20.80;;;3.80;99.90;;;;;;5075964;28;20028;-69
2021/01/03 07:33:27;;;;;;;62.58;22.83;;;3.80;99.90;;;;;;5075866;28;20542;-69
2021/01/03 07:35:52;;;;;;;59.60;20.85;;;3.70;99.90;;;;;;5079122;28;20093;-69
2021/01/03 07:38:24;;;;;;;56.25;22.73;;;3.70;99.90;;;;;;5078630;28;20024;-68
2021/01/03 07:41:04;;;;;;;54.92;20.85;;;3.70;99.90;;;;;;5076397;28;20024;-68
2021/01/03 07:43:50;;;;;;;57.25;21.45;;;3.70;99.90;;;;;;5076370;28;20035;-68
2021/01/03 07:46:50;;;;;;;57.90;21.25;;;3.60;99.90;;;;;;5074792;28;20021;-69
2021/01/03 07:49:47;;;;;;;54.45;20.45;;;3.70;99.90;;;;;;5076289;28;20062;-69
2021/01/03 07:52:18;;;;;;;57.08;21.77;;;3.60;99.90;;;;;;5075381;28;20124;-69
2021/01/03 07:54:56;;;;;;;57.72;21.55;;;3.60;99.90;;;;;;5078213;28;20472;-69
2021/01/03 07:57:26;;;;;;;62.58;22.65;;;3.60;99.90;;;;;;5076249;28;20024;-69
2021/01/03 07:59:53;;;;;;;65.15;23.17;;;3.60;99.90;;;;;;5079369;28;20021;-69
2021/01/03 08:02:29;;;;;;;62.47;23.85;;;3.60;99.90;;;;;;5088395;28;20028;-69
2021/01/03 08:04:58;;;;;;;72.10;23.45;;;3.50;99.90;;;;;;5079510;28;20031;-68
2021/01/03 08:07:24;;;;;;;71.40;24.60;;;3.70;99.90;;;;;;5079896;28;20029;-69
2021/01/03 08:09:50;;;;;;;68.32;24.80;;;3.60;99.90;;;;;;5076236;28;20028;-68
2021/01/03 08:12:32;;;;;;;69.68;24.08;;;3.50;99.90;;;;;;5076469;28;20046;-69
2021/01/03 08:15:03;;;;;;;75.25;25.70;;;3.60;99.90;;;;;;5075719;28;20547;-68
2021/01/03 08:17:35;;;;;;;65.65;24.75;;;3.60;99.90;;;;;;5092321;28;20035;-68
2021/01/03 08:20:03;;;;;;;79.93;27.02;;;3.50;99.90;;;;;;5077811;28;20440;-68
2021/01/03 08:22:30;;;;;;;73.35;25.50;;;3.60;99.90;;;;;;5076391;28;20361;-68
2021/01/03 08:24:58;;;;;;;65.97;25.17;;;3.60;99.90;;;;;;5079165;28;20099;-67
2021/01/03 08:27:33;;;;;;;63.28;24.40;;;3.50;99.90;;;;;;5089946;28;20024;-67
2021/01/03 08:30:05;;;;;;;72.10;25.45;;;3.60;99.90;;;;;;5087399;28;20061;-68
2021/01/03 08:32:31;;;;;;;66.60;24.63;;;3.60;99.90;;;;;;5084489;28;20028;-67
2021/01/03 08:35:00;;;;;;;66.07;25.02;;;3.60;99.90;;;;;;5084573;28;20556;-67
2021/01/03 08:37:34;;;;;;;71.85;26.67;;;3.60;99.90;;;;;;5073802;28;20031;-67
2021/01/03 08:40:13;;;;;;;79.68;26.23;;;3.70;99.90;;;;;;5074096;28;20060;-67
2021/01/03 08:42:42;;;;;;;63.75;24.58;;;3.70;99.90;;;;;;5089301;28;20028;-67
2021/01/03 08:45:16;;;;;;;74.90;27.42;;;3.70;99.90;;;;;;5084652;28;20081;-67
2021/01/03 08:47:42;;;;;;;70.72;25.58;;;3.70;99.90;;;;;;5084951;28;20029;-68
2021/01/03 08:50:19;;;;;;;68.40;25.50;;;3.70;99.90;;;;;;5090560;28;20021;-67
2021/01/03 08:53:00;;;;;;;68.30;24.58;;;3.70;99.90;;;;;;5082193;28;20027;-68
2021/01/03 08:55:28;;;;;;;65.95;26.98;;;3.70;99.90;;;;;;5085013;28;20467;-68
2021/01/03 08:58:03;;;;;;;66.10;24.90;;;3.70;99.90;;;;;;5084478;28;20028;-68
2021/01/03 09:00:38;;;;;;;79.70;28.15;;;3.80;99.90;;;;;;5080399;28;20104;-68
2021/01/03 09:03:13;;;;;;;62.58;24.35;;;3.80;99.90;;;;;;5073506;28;20077;-66
2021/01/03 09:05:39;;;;;;;68.10;25.00;;;3.80;99.90;;;;;;5093967;28;20024;-68
2021/01/03 09:08:08;;;;;;;70.10;26.73;;;3.90;99.90;;;;;;5093549;28;20031;-68
2021/01/03 09:10:35;;;;;;;68.43;25.20;;;3.90;99.90;;;;;;5088028;28;20038;-68
2021/01/03 09:13:23;;;;;;;61.15;24.02;;;3.90;99.90;;;;;;5089294;28;20024;-69
2021/01/03 09:16:13;;;;;;;50.28;21.88;;;3.90;99.90;;;;;;5081487;28;20043;-68
2021/01/03 09:18:40;;;;;;;61.60;23.92;;;4.00;99.90;;;;;;5076535;28;20075;-68
2021/01/03 09:21:11;;;;;;;61.08;24.23;;;3.90;99.90;;;;;;5078009;28;20106;-68
2021/01/03 09:23:41;;;;;;;62.15;22.83;;;4.00;99.90;;;;;;5072214;28;20040;-68
2021/01/03 09:26:09;;;;;;;66.28;25.42;;;4.00;99.90;;;;;;5072839;28;20111;-67
2021/01/03 09:28:39;;;;;;;52.85;23.98;;;4.00;99.90;;;;;;5072507;28;20048;-69
2021/01/03 09:31:25;;;;;;;59.47;23.95;;;4.00;99.90;;;;;;5072734;28;20033;-69
2021/01/03 09:34:09;;;;;;;58.17;24.10;;;4.00;99.90;;;;;;5083220;28;20020;-69
2021/01/03 09:36:54;;;;;;;63.92;25.38;;;4.10;99.90;;;;;;5075665;28;20484;-70
2021/01/03 09:39:36;;;;;;;61.15;25.92;;;4.10;99.90;;;;;;5077205;28;20024;-69
2021/01/03 09:42:40;;;;;;;59.90;25.73;;;4.10;99.90;;;;;;5091834;28;20024;-68
2021/01/03 09:45:08;;;;;;;60.15;25.30;;;4.20;99.90;;;;;;5092591;28;20135;-69
2021/01/03 09:47:44;;;;;;;59.63;24.75;;;4.20;99.90;;;;;;5092571;28;20421;-69
2021/01/03 09:50:23;;;;;;;70.70;28.50;;;4.20;99.90;;;;;;5093453;28;20107;-68
2021/01/03 09:53:18;;;;;;;66.77;27.17;;;4.20;99.90;;;;;;5092429;28;20099;-69
2021/01/03 09:56:07;;;;;;;64.95;24.73;;;4.20;99.90;;;;;;5089936;28;20040;-70
2021/01/03 09:58:38;;;;;;;61.95;26.05;;;4.20;99.90;;;;;;5075783;28;20494;-68
2021/01/03 10:01:07;;;;;;;52.70;22.58;;;4.30;99.90;;;;;;5073938;28;20037;-68
2021/01/03 10:03:44;;;;;;;59.28;24.20;;;4.30;99.90;;;;;;5073591;28;20548;-68
2021/01/03 10:06:23;;;;;;;57.50;24.13;;;4.40;99.90;;;;;;5071928;28;20070;-68
2021/01/03 10:09:05;;;;;;;53.80;23.23;;;4.40;99.90;;;;;;5089965;28;20024;-68
2021/01/03 10:11:32;;;;;;;55.72;23.50;;;4.40;99.90;;;;;;5091687;28;20077;-68
2021/01/03 10:14:05;;;;;;;46.90;21.42;;;4.50;99.90;;;;;;5085352;28;20472;-68
2021/01/03 10:16:32;;;;;;;50.15;23.02;;;4.50;99.90;;;;;;5083300;28;20074;-69
2021/01/03 10:18:58;;;;;;;47.88;21.70;;;4.50;99.90;;;;;;5089824;28;20185;-68
2021/01/03 10:21:50;;;;;;;43.55;20.98;;;4.60;99.90;;;;;;5090620;28;20051;-67
2021/01/03 10:24:24;;;;;;;56.65;22.30;;;4.60;99.90;;;;;;5085319;28;20032;-68
2021/01/03 10:27:05;;;;;;;47.85;20.58;;;4.60;99.90;;;;;;5071612;28;20070;-67
2021/01/03 10:29:32;;;;;;;46.60;20.48;;;4.60;99.90;;;;;;5071460;28;20009;-67
2021/01/03 10:31:58;;;;;;;38.50;17.77;;;4.70;99.90;;;;;;5072129;28;20048;-67
2021/01/03 10:34:25;;;;;;;38.03;17.00;;;4.70;99.90;;;;;;5087570;28;20020;-67
2021/01/03 10:36:57;;;;;;;38.88;18.20;;;4.60;99.90;;;;;;5078774;28;20468;-67
2021/01/03 10:39:23;;;;;;;37.50;18.30;;;4.70;99.90;;;;;;5069632;28;20586;-67
2021/01/03 10:41:48;;;;;;;38.83;18.38;;;4.70;99.90;;;;;;5072362;28;20056;-67
2021/01/03 10:44:14;;;;;;;37.80;18.45;;;4.70;99.90;;;;;;5072214;28;20022;-67
2021/01/03 10:46:40;;;;;;;33.72;17.05;;;4.70;99.90;;;;;;5075511;28;20107;-67
2021/01/03 10:49:07;;;;;;;34.47;16.02;;;4.70;99.90;;;;;;5074854;28;20109;-67
2021/01/03 10:51:39;;;;;;;31.70;15.93;;;4.70;99.90;;;;;;5084190;28;20089;-67
2021/01/03 10:54:07;;;;;;;31.77;16.13;;;4.70;99.90;;;;;;5071841;28;20024;-67
2021/01/03 10:56:33;;;;;;;35.83;17.38;;;4.70;99.90;;;;;;5073738;28;20135;-67
2021/01/03 10:58:59;;;;;;;31.58;15.85;;;4.70;99.90;;;;;;5072217;28;20032;-68
2021/01/03 11:01:25;;;;;;;31.25;15.85;;;4.70;99.90;;;;;;5090413;28;20024;-69
2021/01/03 11:03:51;;;;;;;29.25;15.73;;;4.80;99.90;;;;;;5077822;28;20537;-69
2021/01/03 11:06:17;;;;;;;28.08;15.05;;;4.80;99.90;;;;;;5091668;28;20035;-67
2021/01/03 11:08:43;;;;;;;30.20;14.57;;;4.80;99.90;;;;;;5091002;28;20020;-68
2021/01/03 11:11:09;;;;;;;27.70;15.65;;;4.80;99.90;;;;;;5091644;28;20103;-68
2021/01/03 11:13:35;;;;;;;28.90;14.95;;;4.80;99.90;;;;;;5091083;28;20020;-68
2021/01/03 11:16:01;;;;;;;26.45;13.73;;;4.70;99.90;;;;;;5091235;28;20032;-68
2021/01/03 11:18:27;;;;;;;26.98;13.23;;;4.70;99.90;;;;;;5090641;28;20139;-68
2021/01/03 11:20:52;;;;;;;29.55;14.45;;;4.70;99.90;;;;;;5090359;28;20020;-68
2021/01/03 11:23:18;;;;;;;28.90;14.13;;;4.70;99.90;;;;;;5077959;28;20054;-68
2021/01/03 11:25:48;;;;;;;24.17;13.07;;;4.70;99.90;;;;;;5071272;28;20025;-68
2021/01/03 11:28:14;;;;;;;25.35;13.15;;;4.70;99.90;;;;;;5070771;28;20016;-68
2021/01/03 11:30:40;;;;;;;26.13;13.73;;;4.70;99.90;;;;;;5070829;28;20021;-68
2021/01/03 11:33:06;;;;;;;21.60;12.27;;;4.70;99.90;;;;;;5078539;28;20107;-68
2021/01/03 11:35:31;;;;;;;20.58;10.80;;;4.60;99.90;;;;;;5088767;28;20168;-67
2021/01/03 11:37:57;;;;;;;23.52;12.10;;;4.60;99.90;;;;;;5083065;28;20020;-67
2021/01/03 11:40:23;;;;;;;25.58;12.07;;;4.70;99.90;;;;;;5090700;28;20092;-69
2021/01/03 11:42:49;;;;;;;20.63;11.80;;;4.70;99.90;;;;;;5085942;28;20471;-68
2021/01/03 11:45:19;;;;;;;19.90;11.55;;;4.60;99.90;;;;;;5088002;28;20541;-70
2021/01/03 11:47:44;;;;;;;20.42;11.05;;;4.60;99.90;;;;;;5082197;28;20117;-67
2021/01/03 11:50:13;;;;;;;20.02;10.65;;;4.60;99.90;;;;;;5089500;28;20032;-68
2021/01/03 11:52:39;;;;;;;16.58;10.10;;;4.60;99.90;;;;;;5083609;28;20111;-67
2021/01/03 11:55:07;;;;;;;15.82;10.07;;;4.60;99.90;;;;;;5087611;28;20115;-68
2021/01/03 11:57:32;;;;;;;18.77;10.43;;;4.60;99.90;;;;;;5089150;28;20107;-68
2021/01/03 11:59:58;;;;;;;14.10;9.05;;;4.60;99.90;;;;;;5085261;28;20195;-68
2021/01/03 12:02:23;;;;;;;14.35;9.02;;;4.60;99.90;;;;;;5077995;28;20100;-67
2021/01/03 12:04:49;;;;;;;19.27;8.85;;;4.60;99.90;;;;;;5087329;28;20061;-68
2021/01/03 12:07:17;;;;;;;15.82;9.52;;;4.60;99.90;;;;;;5094666;28;20103;-68
2021/01/03 12:09:43;;;;;;;14.75;9.57;;;4.60;99.90;;;;;;5094881;28;20027;-69
2021/01/03 12:12:12;;;;;;;17.83;9.30;;;4.60;99.90;;;;;;5094306;28;20047;-68
2021/01/03 12:14:39;;;;;;;17.73;9.52;;;4.50;99.90;;;;;;5095251;28;20122;-67
2021/01/03 12:17:08;;;;;;;18.30;9.23;;;4.50;99.90;;;;;;5098528;28;20038;-68
2021/01/03 12:19:34;;;;;;;16.85;10.05;;;4.60;99.90;;;;;;5076064;28;20048;-68
2021/01/03 12:22:02;;;;;;;19.25;10.45;;;4.50;99.90;;;;;;5093978;28;20024;-68
2021/01/03 12:24:28;;;;;;;22.85;11.10;;;4.60;99.90;;;;;;5095173;28;20016;-68
2021/01/03 12:26:54;;;;;;;20.85;10.85;;;4.50;99.90;;;;;;5094650;28;20016;-69
2021/01/03 12:29:21;;;;;;;20.10;10.73;;;4.50;99.90;;;;;;5094426;28;20111;-67
2021/01/03 12:31:49;;;;;;;14.82;9.65;;;4.60;99.90;;;;;;5095298;28;20028;-68
2021/01/03 12:34:17;;;;;;;18.15;10.82;;;4.50;99.90;;;;;;5094333;28;20020;-68
2021/01/03 12:36:43;;;;;;;19.30;10.50;;;4.50;99.90;;;;;;5094371;28;20036;-67
2021/01/03 12:39:11;;;;;;;20.55;10.20;;;4.50;99.90;;;;;;5090600;28;20044;-67
2021/01/03 12:41:36;;;;;;;19.40;10.75;;;4.50;99.90;;;;;;5086200;28;20550;-68
2021/01/03 12:44:03;;;;;;;14.48;9.98;;;4.50;99.90;;;;;;5094052;28;20028;-67
2021/01/03 12:46:33;;;;;;;17.02;10.02;;;4.40;99.90;;;;;;5093949;28;20483;-68
2021/01/03 12:48:58;;;;;;;19.63;11.33;;;4.40;99.90;;;;;;5094084;28;20032;-68
2021/01/03 12:51:24;;;;;;;16.42;10.45;;;4.50;99.90;;;;;;5093996;28;20490;-67
2021/01/03 12:53:50;;;;;;;20.85;10.90;;;4.40;99.90;;;;;;5093828;28;20086;-68
2021/01/03 12:56:22;;;;;;;20.40;11.57;;;4.40;99.90;;;;;;5092716;28;20032;-68
2021/01/03 12:58:50;;;;;;;22.67;11.68;;;4.40;99.90;;;;;;5089953;28;20013;-67
2021/01/03 13:01:20;;;;;;;18.77;10.70;;;4.40;99.90;;;;;;5073200;28;20025;-68